createdAt,value
2023-04-16T00:01:05.997Z,0.77
2023-04-16T00:03:33.365Z,0.80
2023-04-16T00:06:00.643Z,1.13
2023-04-16T00:08:27.403Z,0.65
2023-04-16T00:10:54.146Z,0.98
2023-04-16T00:13:21.195Z,0.90
2023-04-16T00:15:47.887Z,1.25
2023-04-16T00:18:14.648Z,1.10
2023-04-16T00:20:41.390Z,1.27
2023-04-16T00:23:08.163Z,1.13
2023-04-16T00:25:34.913Z,0.98
2023-04-16T00:28:01.575Z,1.02
2023-04-16T00:30:28.269Z,1.35
2023-04-16T00:32:55.084Z,0.82
2023-04-16T00:35:21.821Z,1.30
2023-04-16T00:37:48.672Z,1.08
2023-04-16T00:40:15.529Z,0.70
2023-04-16T00:42:42.267Z,0.85
2023-04-16T00:45:09.942Z,0.93
2023-04-16T00:47:36.943Z,0.85
2023-04-16T00:50:04.870Z,0.82
2023-04-16T00:52:35.253Z,0.68
2023-04-16T00:55:02.466Z,0.82
2023-04-16T00:57:30.816Z,0.90
2023-04-16T00:59:58.289Z,1.15
2023-04-16T01:02:25.547Z,1.05
2023-04-16T01:04:52.484Z,1.08
2023-04-16T01:07:19.357Z,0.73
2023-04-16T01:09:46.262Z,0.70
2023-04-16T01:12:13.630Z,0.85
2023-04-16T01:14:40.355Z,1.05
2023-04-16T01:17:07.175Z,1.40
2023-04-16T01:19:36.333Z,0.63
2023-04-16T01:22:04.277Z,1.10
2023-04-16T01:24:31.485Z,0.75
2023-04-16T01:26:59.555Z,0.70
2023-04-16T01:29:27.050Z,0.80
2023-04-16T01:31:56.403Z,0.88
2023-04-16T01:34:30.684Z,0.88
2023-04-16T01:36:58.298Z,0.50
2023-04-16T01:39:24.987Z,1.13
2023-04-16T01:41:51.734Z,0.75
2023-04-16T01:44:18.678Z,0.70
2023-04-16T01:46:46.321Z,0.80
2023-04-16T01:49:13.146Z,1.20
2023-04-16T01:51:39.902Z,0.70
2023-04-16T01:54:06.734Z,0.98
2023-04-16T01:56:33.474Z,0.80
2023-04-16T01:59:00.277Z,1.55
2023-04-16T02:01:33.257Z,0.95
2023-04-16T02:04:00.658Z,0.68
2023-04-16T02:06:27.543Z,1.23
2023-04-16T02:08:54.364Z,0.93
2023-04-16T02:11:21.406Z,0.70
2023-04-16T02:13:49.168Z,0.70
2023-04-16T02:16:17.989Z,1.48
2023-04-16T02:18:59.579Z,1.55
2023-04-16T02:21:29.983Z,1.23
2023-04-16T02:23:57.442Z,0.90
2023-04-16T02:26:29.150Z,0.80
2023-04-16T02:28:59.886Z,1.08
2023-04-16T02:31:34.422Z,0.93
2023-04-16T02:34:01.433Z,1.25
2023-04-16T02:36:28.144Z,0.85
2023-04-16T02:38:55.868Z,0.73
2023-04-16T02:41:22.918Z,1.20
2023-04-16T02:43:49.683Z,1.20
2023-04-16T02:46:16.554Z,1.10
2023-04-16T02:48:43.376Z,1.02
2023-04-16T02:51:10.269Z,1.27
2023-04-16T02:53:36.987Z,1.15
2023-04-16T02:56:03.802Z,1.08
2023-04-16T02:58:30.578Z,1.88
2023-04-16T03:00:57.452Z,1.27
2023-04-16T03:03:24.783Z,1.30
2023-04-16T03:05:51.941Z,0.90
2023-04-16T03:08:18.662Z,1.52
2023-04-16T03:10:45.595Z,1.15
2023-04-16T03:13:12.267Z,1.00
2023-04-16T03:15:39.014Z,1.63
2023-04-16T03:18:06.184Z,1.60
2023-04-16T03:20:33.202Z,2.40
2023-04-16T03:22:59.872Z,1.65
2023-04-16T03:25:26.590Z,1.88
2023-04-16T03:27:53.331Z,1.70
2023-04-16T03:30:20.096Z,1.60
2023-04-16T03:32:47.253Z,1.55
2023-04-16T03:35:14.052Z,1.40
2023-04-16T03:37:41.439Z,1.60
2023-04-16T03:40:08.591Z,1.23
2023-04-16T03:42:35.390Z,1.60
2023-04-16T03:45:03.303Z,1.20
2023-04-16T03:47:31.519Z,1.80
2023-04-16T03:50:01.944Z,1.55
2023-04-16T03:52:28.870Z,1.45
2023-04-16T03:54:56.338Z,1.58
2023-04-16T03:57:28.190Z,1.60
2023-04-16T04:00:00.493Z,2.03
2023-04-16T04:02:30.109Z,1.40
2023-04-16T04:04:56.985Z,1.23
2023-04-16T04:07:23.731Z,1.25
2023-04-16T04:09:51.918Z,1.73
2023-04-16T04:12:18.759Z,1.77
2023-04-16T04:14:46.475Z,1.40
2023-04-16T04:17:13.278Z,1.20
2023-04-16T04:19:47.181Z,1.40
2023-04-16T04:22:17.903Z,2.03
2023-04-16T04:24:44.638Z,1.50
2023-04-16T04:27:11.388Z,1.75
2023-04-16T04:29:38.111Z,1.70
2023-04-16T04:32:06.266Z,1.27
2023-04-16T04:34:34.255Z,1.67
2023-04-16T04:37:01.533Z,1.45
2023-04-16T04:39:28.754Z,1.98
2023-04-16T04:41:55.714Z,1.88
2023-04-16T04:44:22.394Z,2.08
2023-04-16T04:46:49.114Z,1.65
2023-04-16T04:49:15.989Z,1.92
2023-04-16T04:51:42.727Z,1.40
2023-04-16T04:54:09.672Z,1.80
2023-04-16T04:56:36.554Z,1.73
2023-04-16T04:59:03.223Z,1.88
2023-04-16T05:01:29.989Z,2.25
2023-04-16T05:03:56.857Z,1.83
2023-04-16T05:06:23.628Z,1.60
2023-04-16T05:08:50.293Z,1.75
2023-04-16T05:11:16.971Z,1.92
2023-04-16T05:13:43.635Z,1.85
2023-04-16T05:16:10.363Z,1.52
2023-04-16T05:18:37.155Z,1.83
2023-04-16T05:21:04.146Z,1.80
2023-04-16T05:23:30.880Z,2.10
2023-04-16T05:25:57.565Z,2.33
2023-04-16T05:28:24.279Z,1.80
2023-04-16T05:30:51.331Z,2.15
2023-04-16T05:33:18.100Z,1.80
2023-04-16T05:35:44.774Z,1.75
2023-04-16T05:38:11.490Z,1.75
2023-04-16T05:40:38.186Z,1.27
2023-04-16T05:43:04.920Z,1.63
2023-04-16T05:45:33.408Z,1.25
2023-04-16T05:48:00.327Z,1.40
2023-04-16T05:50:27.102Z,1.50
2023-04-16T05:52:53.851Z,1.90
2023-04-16T05:55:20.687Z,2.22
2023-04-16T05:57:47.416Z,1.48
2023-04-16T06:00:14.446Z,1.92
2023-04-16T06:02:41.697Z,2.20
2023-04-16T06:05:08.760Z,1.65
2023-04-16T06:07:35.738Z,2.17
2023-04-16T06:10:02.670Z,1.50
2023-04-16T06:12:29.617Z,1.88
2023-04-16T06:14:56.359Z,2.10
2023-04-16T06:17:23.194Z,1.50
2023-04-16T06:19:49.895Z,1.90
2023-04-16T06:22:16.583Z,1.98
2023-04-16T06:24:43.378Z,1.45
2023-04-16T06:27:10.510Z,2.25
2023-04-16T06:29:41.144Z,1.70
2023-04-16T06:32:08.970Z,2.00
2023-04-16T06:34:36.169Z,1.70
2023-04-16T06:37:02.851Z,1.80
2023-04-16T06:39:29.612Z,1.70
2023-04-16T06:41:56.385Z,2.25
2023-04-16T06:44:23.158Z,1.85
2023-04-16T06:46:50.886Z,1.60
2023-04-16T06:49:17.631Z,2.88
2023-04-16T06:51:44.405Z,1.83
2023-04-16T06:54:11.193Z,1.73
2023-04-16T06:56:37.870Z,2.30
2023-04-16T06:59:04.906Z,2.45
2023-04-16T07:01:31.819Z,2.35
2023-04-16T07:03:58.910Z,1.98
2023-04-16T07:06:27.052Z,2.00
2023-04-16T07:08:53.839Z,2.05
2023-04-16T07:11:20.971Z,1.90
2023-04-16T07:13:47.709Z,2.08
2023-04-16T07:16:14.498Z,2.40
2023-04-16T07:18:41.231Z,1.98
2023-04-16T07:21:08.020Z,3.22
2023-04-16T07:23:34.867Z,1.42
2023-04-16T07:26:01.585Z,2.65
2023-04-16T07:28:28.389Z,2.13
2023-04-16T07:30:55.130Z,2.35
2023-04-16T07:33:21.891Z,2.10
2023-04-16T07:35:48.569Z,2.63
2023-04-16T07:38:16.297Z,2.13
2023-04-16T07:40:43.115Z,1.58
2023-04-16T07:43:10.537Z,1.50
2023-04-16T07:45:37.380Z,2.17
2023-04-16T07:48:04.151Z,1.80
2023-04-16T07:50:31.002Z,2.80
2023-04-16T07:53:01.075Z,1.75
2023-04-16T07:55:27.818Z,2.22
2023-04-16T07:57:55.214Z,1.83
2023-04-16T08:00:21.893Z,2.25
2023-04-16T08:02:48.940Z,2.22
2023-04-16T08:05:15.817Z,1.70
2023-04-16T08:07:42.607Z,2.38
2023-04-16T08:10:09.481Z,2.05
2023-04-16T08:12:36.298Z,2.33
2023-04-16T08:15:03.777Z,2.00
2023-04-16T08:17:30.721Z,2.35
2023-04-16T08:19:57.551Z,2.40
2023-04-16T08:22:24.486Z,2.25
2023-04-16T08:24:51.205Z,2.15
2023-04-16T08:27:19.608Z,1.88
2023-04-16T08:29:47.990Z,1.95
2023-04-16T08:32:14.836Z,1.52
2023-04-16T08:34:42.464Z,2.42
2023-04-16T08:37:09.700Z,2.05
2023-04-16T08:39:36.579Z,2.03
2023-04-16T08:42:06.115Z,2.15
2023-04-16T08:44:37.379Z,2.00
2023-04-16T08:47:06.960Z,1.75
2023-04-16T08:49:42.137Z,1.75
2023-04-16T08:52:14.471Z,2.22
2023-04-16T08:55:05.073Z,3.27
2023-04-16T08:57:40.398Z,2.65
2023-04-16T09:00:09.171Z,2.47
2023-04-16T09:02:36.499Z,2.67
2023-04-16T09:05:06.657Z,2.33
2023-04-16T09:07:34.694Z,2.10
2023-04-16T09:10:01.852Z,2.63
2023-04-16T09:12:31.284Z,2.40
2023-04-16T09:15:01.082Z,2.05
2023-04-16T09:17:28.467Z,2.55
2023-04-16T09:19:56.361Z,2.83
2023-04-16T09:22:23.135Z,2.30
2023-04-16T09:24:49.874Z,2.35
2023-04-16T09:27:17.486Z,2.10
2023-04-16T09:29:44.273Z,2.90
2023-04-16T09:32:11.929Z,2.15
2023-04-16T09:34:57.270Z,2.30
2023-04-16T09:37:25.624Z,2.40
2023-04-16T09:39:59.432Z,2.45
2023-04-16T09:42:34.136Z,1.88
2023-04-16T09:45:03.364Z,1.90
2023-04-16T09:47:43.256Z,2.22
2023-04-16T09:50:16.449Z,2.08
2023-04-16T09:52:47.860Z,2.00
2023-04-16T09:55:14.755Z,2.35
2023-04-16T09:57:41.397Z,3.03
2023-04-16T10:00:10.056Z,2.30
2023-04-16T10:02:41.726Z,2.30
2023-04-16T10:05:09.250Z,1.92
2023-04-16T10:07:37.233Z,2.33
2023-04-16T10:10:05.400Z,2.05
2023-04-16T10:12:35.616Z,2.67
2023-04-16T10:15:02.484Z,2.42
2023-04-16T10:17:30.405Z,1.98
2023-04-16T10:19:58.386Z,2.92
2023-04-16T10:22:26.253Z,3.28
2023-04-16T10:24:53.862Z,2.53
2023-04-16T10:27:21.213Z,2.60
2023-04-16T10:29:49.250Z,2.47
2023-04-16T10:32:17.831Z,2.40
2023-04-16T10:34:44.861Z,2.47
2023-04-16T10:37:11.768Z,3.03
2023-04-16T10:39:38.500Z,2.38
2023-04-16T10:44:53.537Z,1.95
2023-04-16T10:47:29.212Z,2.22
2023-04-16T10:49:56.134Z,2.38
2023-04-16T10:52:24.916Z,2.53
2023-04-16T10:54:53.213Z,2.50
2023-04-16T10:57:20.535Z,3.03
2023-04-16T10:59:49.053Z,2.25
2023-04-16T11:02:17.914Z,2.28
2023-04-16T11:04:46.491Z,1.90
2023-04-16T11:07:19.399Z,2.70
2023-04-16T11:10:00.357Z,2.25
2023-04-16T11:12:39.719Z,1.77
2023-04-16T11:15:06.955Z,2.22
2023-04-16T11:17:41.115Z,1.88
2023-04-16T11:20:18.855Z,2.88
2023-04-16T11:22:52.052Z,2.92
2023-04-16T11:25:26.157Z,2.80
2023-04-16T11:27:53.816Z,2.72
2023-04-16T11:30:30.047Z,2.33
2023-04-16T11:32:56.819Z,2.28
2023-04-16T11:35:23.679Z,2.35
2023-04-16T11:37:55.291Z,2.42
2023-04-16T11:40:22.021Z,2.70
2023-04-16T11:42:48.863Z,2.33
2023-04-16T11:45:15.567Z,2.40
2023-04-16T11:47:52.961Z,2.88
2023-04-16T11:50:23.600Z,2.42
2023-04-16T11:52:52.320Z,2.15
2023-04-16T11:55:20.593Z,2.92
2023-04-16T11:57:47.349Z,2.38
2023-04-16T12:00:15.128Z,2.03
2023-04-16T12:02:43.317Z,2.33
2023-04-16T12:05:30.159Z,2.22
2023-04-16T12:08:07.135Z,2.75
2023-04-16T12:10:36.542Z,1.90
2023-04-16T12:13:14.355Z,2.75
2023-04-16T12:15:52.846Z,2.28
2023-04-16T12:18:26.055Z,2.58
2023-04-16T12:20:53.079Z,2.92
2023-04-16T12:23:30.749Z,2.58
2023-04-16T12:26:02.697Z,2.65
2023-04-16T12:28:36.617Z,1.80
2023-04-16T12:31:04.432Z,2.42
2023-04-16T12:33:31.593Z,2.65
2023-04-16T12:35:58.633Z,2.38
2023-04-16T12:38:26.289Z,3.30
2023-04-16T12:40:56.708Z,2.97
2023-04-16T12:43:24.428Z,3.17
2023-04-16T12:45:51.377Z,2.72
2023-04-16T12:48:18.155Z,2.55
2023-04-16T12:50:44.893Z,2.42
2023-04-16T12:53:11.959Z,3.03
2023-04-16T12:55:38.726Z,2.97
2023-04-16T12:58:05.679Z,2.35
2023-04-16T13:00:32.773Z,2.63
2023-04-16T13:02:59.644Z,4.60
2023-04-16T13:05:27.197Z,3.92
2023-04-16T13:07:54.242Z,3.33
2023-04-16T13:10:22.010Z,2.90
2023-04-16T13:12:48.952Z,2.65
2023-04-16T13:15:15.868Z,3.40
2023-04-16T13:17:42.648Z,3.50
2023-04-16T13:20:10.042Z,4.05
2023-04-16T13:22:37.013Z,3.00
2023-04-16T13:25:04.215Z,3.63
2023-04-16T13:27:32.462Z,3.67
2023-04-16T13:29:59.185Z,3.25
2023-04-16T13:32:25.925Z,3.60
2023-04-16T13:34:52.647Z,5.50
2023-04-16T13:37:19.395Z,6.72
2023-04-16T13:39:47.276Z,6.20
2023-04-16T13:42:14.021Z,5.38
2023-04-16T13:44:40.996Z,5.95
2023-04-16T13:47:08.095Z,5.03
2023-04-16T13:49:35.921Z,5.20
2023-04-16T13:52:03.416Z,4.80
2023-04-16T13:54:30.194Z,4.78
2023-04-16T13:56:57.121Z,4.55
2023-04-16T13:59:23.946Z,4.55
2023-04-16T14:01:51.255Z,4.45
2023-04-16T14:04:18.209Z,4.13
2023-04-16T14:06:45.153Z,4.35
2023-04-16T14:09:11.946Z,4.65
2023-04-16T14:11:38.794Z,4.43
2023-04-16T14:14:05.645Z,4.05
2023-04-16T14:16:32.468Z,3.63
2023-04-16T14:18:59.554Z,4.00
2023-04-16T14:21:26.984Z,4.15
2023-04-16T14:23:53.684Z,4.30
2023-04-16T14:26:20.716Z,4.60
2023-04-16T14:28:47.657Z,4.25
2023-04-16T14:31:14.486Z,4.15
2023-04-16T14:33:41.262Z,3.95
2023-04-16T14:36:08.076Z,3.50
2023-04-16T14:38:34.842Z,3.67
2023-04-16T14:41:01.741Z,4.03
2023-04-16T14:43:28.782Z,4.35
2023-04-16T14:45:57.012Z,5.15
2023-04-16T14:48:23.770Z,4.05
2023-04-16T14:50:50.897Z,4.57
2023-04-16T14:53:17.705Z,4.55
2023-04-16T14:55:44.442Z,3.67
2023-04-16T14:58:11.133Z,3.83
2023-04-16T15:00:37.910Z,4.00
2023-04-16T15:03:05.797Z,3.35
2023-04-16T15:05:32.744Z,4.55
2023-04-16T15:08:00.401Z,4.05
2023-04-16T15:10:27.375Z,4.28
2023-04-16T15:12:54.119Z,3.78
2023-04-16T15:15:20.952Z,3.97
2023-04-16T15:17:47.734Z,4.80
2023-04-16T15:20:14.660Z,4.20
2023-04-16T15:22:41.463Z,4.10
2023-04-16T15:25:08.602Z,3.78
2023-04-16T15:27:36.423Z,4.57
2023-04-16T15:30:03.640Z,3.78
2023-04-16T15:32:31.236Z,3.95
2023-04-16T15:34:58.029Z,3.90
2023-04-16T15:37:24.699Z,3.72
2023-04-16T15:39:51.382Z,3.88
2023-04-16T15:42:18.151Z,3.95
2023-04-16T15:44:44.898Z,3.47
2023-04-16T15:47:11.692Z,3.95
2023-04-16T15:49:38.563Z,4.15
2023-04-16T15:52:05.621Z,3.80
2023-04-16T15:54:32.467Z,4.13
2023-04-16T15:56:59.255Z,3.92
2023-04-16T15:59:26.761Z,3.33
2023-04-16T16:01:53.607Z,3.85
2023-04-16T16:04:22.794Z,3.47
2023-04-16T16:06:50.381Z,3.60
2023-04-16T16:09:17.527Z,3.90
2023-04-16T16:11:44.290Z,3.92
2023-04-16T16:14:11.187Z,3.58
2023-04-16T16:16:39.364Z,3.47
2023-04-16T16:19:06.078Z,4.22
2023-04-16T16:21:32.987Z,4.07
2023-04-16T16:23:59.689Z,4.30
2023-04-16T16:26:27.096Z,3.70
2023-04-16T16:28:53.839Z,4.25
2023-04-16T16:31:20.813Z,3.35
2023-04-16T16:33:47.653Z,3.45
2023-04-16T16:36:14.593Z,4.70
2023-04-16T16:38:42.526Z,4.38
2023-04-16T16:41:09.328Z,4.13
2023-04-16T16:43:36.713Z,3.05
2023-04-16T16:46:03.651Z,3.42
2023-04-16T16:48:30.400Z,4.82
2023-04-16T16:50:57.227Z,3.35
2023-04-16T16:53:23.993Z,3.60
2023-04-16T16:55:50.993Z,3.53
2023-04-16T16:58:17.709Z,2.80
2023-04-16T17:00:44.534Z,3.10
2023-04-16T17:03:11.482Z,3.03
2023-04-16T17:05:38.376Z,3.50
2023-04-16T17:08:06.475Z,2.90
2023-04-16T17:10:33.319Z,2.45
2023-04-16T17:13:00.049Z,2.50
2023-04-16T17:15:26.921Z,2.58
2023-04-16T17:17:53.906Z,2.90
2023-04-16T17:20:20.794Z,2.45
2023-04-16T17:22:47.570Z,2.78
2023-04-16T17:25:14.386Z,3.35
2023-04-16T17:27:41.309Z,2.33
2023-04-16T17:30:08.517Z,3.00
2023-04-16T17:32:35.662Z,2.55
2023-04-16T17:35:04.546Z,2.38
2023-04-16T17:37:31.902Z,2.35
2023-04-16T17:39:58.671Z,2.30
2023-04-16T17:42:25.417Z,2.78
2023-04-16T17:44:52.334Z,2.83
2023-04-16T17:47:19.068Z,2.40
2023-04-16T17:49:45.955Z,2.60
2023-04-16T17:52:12.680Z,2.67
2023-04-16T17:54:39.408Z,2.53
2023-04-16T17:57:06.292Z,2.10
2023-04-16T17:59:33.342Z,1.98
2023-04-16T18:02:00.310Z,2.42
2023-04-16T18:04:27.484Z,3.95
2023-04-16T18:06:54.326Z,2.95
2023-04-16T18:09:21.255Z,3.05
2023-04-16T18:11:48.067Z,3.65
2023-04-16T18:14:19.645Z,3.63
2023-04-16T18:16:47.393Z,2.80
2023-04-16T18:19:14.206Z,2.17
2023-04-16T18:21:41.083Z,3.20
2023-04-16T18:24:08.001Z,2.80
2023-04-16T18:26:36.209Z,2.60
2023-04-16T18:29:05.518Z,3.03
2023-04-16T18:31:32.400Z,3.30
2023-04-16T18:33:59.242Z,3.38
2023-04-16T18:36:27.019Z,2.90
2023-04-16T18:39:01.067Z,3.08
2023-04-16T18:41:29.577Z,2.90
2023-04-16T18:43:56.615Z,2.80
2023-04-16T18:46:23.388Z,2.65
2023-04-16T18:48:50.298Z,2.65
2023-04-16T18:51:17.046Z,2.95
2023-04-16T18:53:45.445Z,3.08
2023-04-16T18:56:12.536Z,2.08
2023-04-16T18:58:39.252Z,2.28
2023-04-16T19:01:10.994Z,2.53
2023-04-16T19:03:38.458Z,2.60
2023-04-16T19:06:06.165Z,2.42
2023-04-16T19:08:33.071Z,2.53
2023-04-16T19:10:59.901Z,2.88
2023-04-16T19:13:26.726Z,2.40
2023-04-16T19:15:59.492Z,2.42
2023-04-16T19:18:26.547Z,2.33
2023-04-16T19:20:59.663Z,3.03
2023-04-16T19:23:27.225Z,2.78
2023-04-16T19:25:56.139Z,2.72
2023-04-16T19:28:23.649Z,3.90
2023-04-16T19:30:51.577Z,2.42
2023-04-16T19:33:18.860Z,2.47
2023-04-16T19:35:46.456Z,2.63
2023-04-16T19:38:13.261Z,2.17
2023-04-16T19:40:40.324Z,2.58
2023-04-16T19:43:07.057Z,2.45
2023-04-16T19:45:33.864Z,2.40
2023-04-16T19:48:00.659Z,2.55
2023-04-16T19:50:27.383Z,2.25
2023-04-16T19:52:54.108Z,2.90
2023-04-16T19:55:20.858Z,2.22
2023-04-16T19:57:48.347Z,2.22
2023-04-16T20:00:15.401Z,2.45
2023-04-16T20:02:42.189Z,2.47
2023-04-16T20:05:09.535Z,2.95
2023-04-16T20:07:36.233Z,3.05
2023-04-16T20:10:03.330Z,2.90
2023-04-16T20:12:30.039Z,2.40
2023-04-16T20:14:56.783Z,3.28
2023-04-16T20:17:23.880Z,2.67
2023-04-16T20:19:51.336Z,2.85
2023-04-16T20:22:18.862Z,2.47
2023-04-16T20:24:47.918Z,3.00
2023-04-16T20:27:15.316Z,3.40
2023-04-16T20:29:42.353Z,2.67
2023-04-16T20:32:09.224Z,3.80
2023-04-16T20:34:37.844Z,3.38
2023-04-16T20:37:04.938Z,3.08
2023-04-16T20:39:36.117Z,3.08
2023-04-16T20:42:04.257Z,3.05
2023-04-16T20:44:40.062Z,2.97
2023-04-16T20:47:07.910Z,2.88
2023-04-16T20:49:35.565Z,3.28
2023-04-16T20:52:03.455Z,2.88
2023-04-16T20:54:33.207Z,2.70
2023-04-16T20:56:59.885Z,3.72
2023-04-16T20:59:26.619Z,2.97
2023-04-16T21:01:53.486Z,2.78
2023-04-16T21:04:20.638Z,3.00
2023-04-16T21:06:47.430Z,3.90
2023-04-16T21:09:14.182Z,4.28
2023-04-16T21:11:41.015Z,3.00
2023-04-16T21:14:07.870Z,3.00
2023-04-16T21:16:34.641Z,3.13
2023-04-16T21:19:01.452Z,2.95
2023-04-16T21:21:28.442Z,3.53
2023-04-16T21:23:55.319Z,2.78
2023-04-16T21:26:22.018Z,3.28
2023-04-16T21:28:48.722Z,3.85
2023-04-16T21:31:15.497Z,3.13
2023-04-16T21:33:42.263Z,2.83
2023-04-16T21:36:10.081Z,2.90
2023-04-16T21:38:36.847Z,3.30
2023-04-16T21:41:03.681Z,3.10
2023-04-16T21:43:31.941Z,3.75
2023-04-16T21:45:59.501Z,3.47
2023-04-16T21:48:26.954Z,3.38
2023-04-16T21:50:58.301Z,3.00
2023-04-16T21:53:27.835Z,4.32
2023-04-16T21:55:54.479Z,3.38
2023-04-16T21:58:21.170Z,4.25
2023-04-16T22:00:47.843Z,4.20
2023-04-16T22:03:14.840Z,3.00
2023-04-16T22:05:41.625Z,3.17
2023-04-16T22:08:23.243Z,3.83
2023-04-16T22:10:51.320Z,2.80
2023-04-16T22:13:18.231Z,3.67
2023-04-16T22:15:45.040Z,3.70
2023-04-16T22:18:12.038Z,4.10
2023-04-16T22:20:39.639Z,3.55
2023-04-16T22:23:06.836Z,3.95
2023-04-16T22:25:33.831Z,3.72
2023-04-16T22:28:01.566Z,4.00
2023-04-16T22:30:28.360Z,3.72
2023-04-16T22:32:55.310Z,3.30
2023-04-16T22:35:22.043Z,3.70
2023-04-16T22:37:48.761Z,3.60
2023-04-16T22:40:15.859Z,3.72
2023-04-16T22:42:42.633Z,4.03
2023-04-16T22:45:10.618Z,3.53
2023-04-16T22:47:37.498Z,2.90
2023-04-16T22:50:06.282Z,3.28
2023-04-16T22:52:32.987Z,3.97
2023-04-16T22:54:59.755Z,4.00
2023-04-16T22:57:26.497Z,4.53
2023-04-16T22:59:53.346Z,3.88
2023-04-16T23:02:21.223Z,3.80
2023-04-16T23:04:48.139Z,3.65
2023-04-16T23:07:15.602Z,3.53
2023-04-16T23:09:42.603Z,3.75
2023-04-16T23:12:09.373Z,3.53
2023-04-16T23:14:36.870Z,3.85
2023-04-16T23:17:03.805Z,4.03
2023-04-16T23:19:31.638Z,4.07
2023-04-16T23:21:58.674Z,3.97
2023-04-16T23:24:25.388Z,3.80
2023-04-16T23:26:52.663Z,3.63
2023-04-16T23:29:20.613Z,3.60
2023-04-16T23:31:47.792Z,3.88
2023-04-16T23:34:14.671Z,4.50
2023-04-16T23:36:41.684Z,3.70
2023-04-16T23:39:08.352Z,4.78
2023-04-16T23:41:35.190Z,4.18
2023-04-16T23:44:01.861Z,5.13
2023-04-16T23:46:28.683Z,3.40
2023-04-16T23:48:55.541Z,3.58
2023-04-16T23:51:22.414Z,4.53
2023-04-16T23:53:49.121Z,4.55
2023-04-16T23:56:16.173Z,4.60
2023-04-16T23:58:42.861Z,4.38
